createdAt,value
2022-08-26T00:01:42.153Z,95555.38
2022-08-26T00:04:12.268Z,95552.09
2022-08-26T00:06:39.083Z,95552.06
2022-08-26T00:09:16.376Z,95551.19
2022-08-26T00:11:47.195Z,95553.25
2022-08-26T00:14:16.488Z,95545.34
2022-08-26T00:16:47.151Z,95546.47
2022-08-26T00:19:17.848Z,95545.66
2022-08-26T00:21:45.732Z,95539.03
2022-08-26T00:24:13.232Z,95543.16
2022-08-26T00:26:41.384Z,95531.19
2022-08-26T00:29:08.521Z,95534.91
2022-08-26T00:31:36.419Z,95534.34
2022-08-26T00:34:04.331Z,95529.34
2022-08-26T00:36:31.878Z,95535.34
2022-08-26T00:38:58.742Z,95535.44
2022-08-26T00:41:25.317Z,95540.31
2022-08-26T00:43:52.616Z,95533.53
2022-08-26T00:46:28.735Z,95543.81
2022-08-26T00:49:05.281Z,95542.00
2022-08-26T00:51:46.022Z,95544.09
2022-08-26T00:54:13.191Z,95549.28
2022-08-26T00:57:00.283Z,95545.56
2022-08-26T00:59:29.093Z,95540.03
2022-08-26T01:02:00.552Z,95542.47
2022-08-26T01:04:31.509Z,95540.34
2022-08-26T01:06:59.174Z,95549.09
2022-08-26T01:09:26.984Z,95545.03
2022-08-26T01:11:57.490Z,95546.25
2022-08-26T01:14:28.584Z,95553.69
2022-08-26T01:16:55.032Z,95549.88
2022-08-26T01:19:32.538Z,95552.75
2022-08-26T01:22:05.618Z,95554.22
2022-08-26T01:24:32.522Z,95553.75
2022-08-26T01:27:05.148Z,95549.22
2022-08-26T01:29:33.999Z,95558.75
2022-08-26T01:32:03.323Z,95555.25
2022-08-26T01:34:35.999Z,95556.41
2022-08-26T01:37:15.495Z,95552.31
2022-08-26T01:39:44.997Z,95552.72
2022-08-26T01:42:14.625Z,95550.47
2022-08-26T01:45:14.298Z,95554.81
2022-08-26T01:47:42.483Z,95560.44
2022-08-26T01:50:27.525Z,95562.25
2022-08-26T01:52:57.217Z,95560.56
2022-08-26T01:55:32.861Z,95558.81
2022-08-26T01:58:04.654Z,95564.31
2022-08-26T02:00:32.689Z,95563.34
2022-08-26T02:03:17.968Z,95553.75
2022-08-26T02:05:53.331Z,95555.50
2022-08-26T02:08:28.627Z,95551.81
2022-08-26T02:10:55.466Z,95559.97
2022-08-26T02:13:26.639Z,95557.97
2022-08-26T02:15:55.333Z,95555.78
2022-08-26T02:18:22.865Z,95560.41
2022-08-26T02:20:51.530Z,95551.44
2022-08-26T02:23:18.553Z,95557.16
2022-08-26T02:26:07.411Z,95557.53
2022-08-26T02:28:44.480Z,95555.56
2022-08-26T02:31:11.483Z,95564.28
2022-08-26T02:33:38.281Z,95561.19
2022-08-26T02:36:10.597Z,95569.22
2022-08-26T02:38:38.786Z,95565.47
2022-08-26T02:41:06.578Z,95563.06
2022-08-26T02:43:34.751Z,95561.25
2022-08-26T02:46:02.290Z,95556.75
2022-08-26T02:48:29.504Z,95555.97
2022-08-26T02:50:56.180Z,95557.91
2022-08-26T02:53:25.389Z,95559.22
2022-08-26T02:55:52.662Z,95553.00
2022-08-26T02:58:19.348Z,95552.03
2022-08-26T03:00:53.356Z,95556.63
2022-08-26T03:03:20.744Z,95557.16
2022-08-26T03:05:50.318Z,95557.69
2022-08-26T03:08:17.155Z,95551.41
2022-08-26T03:10:44.376Z,95551.66
2022-08-26T03:13:11.075Z,95545.78
2022-08-26T03:15:37.684Z,95538.44
2022-08-26T03:18:04.802Z,95540.47
2022-08-26T03:20:32.074Z,95537.56
2022-08-26T03:22:58.955Z,95545.94
2022-08-26T03:25:26.578Z,95541.31
2022-08-26T03:27:53.996Z,95536.03
2022-08-26T03:30:39.905Z,95537.78
2022-08-26T03:33:13.482Z,95539.19
2022-08-26T03:35:43.478Z,95538.91
2022-08-26T03:38:10.817Z,95531.78
2022-08-26T03:40:37.884Z,95536.47
2022-08-26T03:43:06.401Z,95536.09
2022-08-26T03:45:36.492Z,95533.66
2022-08-26T03:48:04.636Z,95529.19
2022-08-26T03:50:34.380Z,95528.34
2022-08-26T03:53:02.975Z,95541.16
2022-08-26T03:55:32.005Z,95534.31
2022-08-26T03:57:59.715Z,95547.59
2022-08-26T04:00:26.917Z,95540.94
2022-08-26T04:02:53.631Z,95538.19
2022-08-26T04:05:22.041Z,95541.88
2022-08-26T04:07:49.973Z,95536.25
2022-08-26T04:10:20.249Z,95541.91
2022-08-26T04:12:47.617Z,95537.88
2022-08-26T04:15:16.119Z,95539.41
2022-08-26T04:17:44.587Z,95539.59
2022-08-26T04:20:13.940Z,95535.34
2022-08-26T04:22:43.090Z,95538.91
2022-08-26T04:25:10.947Z,95543.25
2022-08-26T04:27:38.019Z,95541.16
2022-08-26T04:30:07.967Z,95533.50
2022-08-26T04:32:35.575Z,95533.81
2022-08-26T04:35:03.506Z,95541.78
2022-08-26T04:37:31.883Z,95532.09
2022-08-26T04:39:59.430Z,95531.69
2022-08-26T04:42:26.460Z,95534.72
2022-08-26T04:44:53.086Z,95526.81
2022-08-26T04:47:19.674Z,95537.09
2022-08-26T04:49:46.250Z,95533.66
2022-08-26T04:52:12.917Z,95533.88
2022-08-26T04:54:39.508Z,95533.63
2022-08-26T04:57:08.814Z,95536.78
2022-08-26T04:59:39.053Z,95537.09
2022-08-26T05:02:06.872Z,95543.56
2022-08-26T05:04:34.520Z,95548.59
2022-08-26T05:07:02.673Z,95540.97
2022-08-26T05:09:29.793Z,95543.66
2022-08-26T05:11:57.422Z,95538.31
2022-08-26T05:14:24.066Z,95540.00
2022-08-26T05:16:51.475Z,95537.78
2022-08-26T05:19:18.858Z,95541.16
2022-08-26T05:21:47.162Z,95547.94
2022-08-26T05:24:14.330Z,95545.13
2022-08-26T05:26:40.940Z,95547.16
2022-08-26T05:29:07.913Z,95546.59
2022-08-26T05:31:35.347Z,95548.34
2022-08-26T05:34:04.436Z,95545.69
2022-08-26T05:36:34.376Z,95545.72
2022-08-26T05:39:03.691Z,95549.81
2022-08-26T05:41:36.191Z,95552.19
2022-08-26T05:44:05.916Z,95552.84
2022-08-26T05:46:33.868Z,95553.56
2022-08-26T05:49:01.300Z,95551.81
2022-08-26T05:51:27.932Z,95556.53
2022-08-26T05:53:57.115Z,95562.34
2022-08-26T05:56:26.100Z,95557.78
2022-08-26T05:58:53.698Z,95553.66
2022-08-26T06:01:25.584Z,95554.75
2022-08-26T06:03:54.743Z,95559.16
2022-08-26T06:06:34.540Z,95563.53
2022-08-26T06:09:04.038Z,95566.53
2022-08-26T06:11:32.527Z,95567.59
2022-08-26T06:14:04.297Z,95570.59
2022-08-26T06:16:34.899Z,95572.69
2022-08-26T06:19:03.799Z,95576.22
2022-08-26T06:21:41.396Z,95573.78
2022-08-26T06:24:29.811Z,95582.22
2022-08-26T06:27:00.175Z,95573.25
2022-08-26T06:29:29.462Z,95577.09
2022-08-26T06:31:57.485Z,95575.28
2022-08-26T06:34:29.816Z,95577.22
2022-08-26T06:36:59.516Z,95576.72
2022-08-26T06:39:26.160Z,95586.31
2022-08-26T06:41:52.969Z,95586.88
2022-08-26T06:44:20.234Z,95582.97
2022-08-26T06:46:50.420Z,95585.78
2022-08-26T06:49:18.086Z,95588.19
2022-08-26T06:51:47.152Z,95584.13
2022-08-26T06:54:15.583Z,95577.50
2022-08-26T06:56:43.964Z,95585.22
2022-08-26T06:59:12.206Z,95576.47
2022-08-26T07:01:45.359Z,95578.13
2022-08-26T07:04:15.657Z,95577.78
2022-08-26T07:06:49.328Z,95582.72
2022-08-26T07:09:16.924Z,95583.91
2022-08-26T07:11:44.530Z,95579.72
2022-08-26T07:14:11.459Z,95579.81
2022-08-26T07:16:41.721Z,95586.66
2022-08-26T07:19:10.911Z,95584.59
2022-08-26T07:21:41.650Z,95592.91
2022-08-26T07:24:11.073Z,95591.59
2022-08-26T07:26:38.893Z,95596.66
2022-08-26T07:29:12.322Z,95588.69
2022-08-26T07:31:42.893Z,95596.72
2022-08-26T07:34:11.705Z,95590.78
2022-08-26T07:36:38.314Z,95590.91
2022-08-26T07:39:05.670Z,95590.03
2022-08-26T07:41:32.622Z,95592.38
2022-08-26T07:43:59.345Z,95588.59
2022-08-26T07:46:27.466Z,95585.91
2022-08-26T07:48:57.409Z,95588.81
2022-08-26T07:51:24.987Z,95588.25
2022-08-26T07:53:52.531Z,95583.94
2022-08-26T07:56:20.968Z,95585.63
2022-08-26T07:58:51.517Z,95583.97
2022-08-26T08:01:24.590Z,95588.22
2022-08-26T08:03:53.751Z,95587.84
2022-08-26T08:06:22.368Z,95583.28
2022-08-26T08:08:50.729Z,95582.88
2022-08-26T08:11:22.978Z,95584.72
2022-08-26T08:13:56.138Z,95587.22
2022-08-26T08:16:33.327Z,95584.78
2022-08-26T08:19:01.082Z,95580.09
2022-08-26T08:21:28.206Z,95581.88
2022-08-26T08:23:56.958Z,95583.16
2022-08-26T08:26:25.576Z,95584.34
2022-08-26T08:28:57.586Z,95581.28
2022-08-26T08:31:55.923Z,95583.53
2022-08-26T08:34:18.461Z,95579.03
2022-08-26T08:36:46.374Z,95575.13
2022-08-26T08:39:13.842Z,95577.47
2022-08-26T08:42:13.893Z,95576.91
2022-08-26T08:44:44.255Z,95573.66
2022-08-26T08:47:29.315Z,95577.56
2022-08-26T08:50:03.389Z,95570.84
2022-08-26T08:52:35.107Z,95570.22
2022-08-26T08:55:02.411Z,95569.06
2022-08-26T08:58:06.833Z,95567.25
2022-08-26T09:00:46.466Z,95566.78
2022-08-26T09:03:55.423Z,95569.06
2022-08-26T09:06:22.112Z,95571.13
2022-08-26T09:08:50.720Z,95572.19
2022-08-26T09:11:19.700Z,95569.59
2022-08-26T09:13:52.919Z,95573.19
2022-08-26T09:16:32.951Z,95572.13
2022-08-26T09:19:18.821Z,95570.72
2022-08-26T09:21:46.406Z,95569.38
2022-08-26T09:24:20.125Z,95565.53
2022-08-26T09:26:49.781Z,95568.22
2022-08-26T09:29:28.450Z,95565.91
2022-08-26T09:32:16.360Z,95557.69
2022-08-26T09:35:01.730Z,95564.06
2022-08-26T09:37:38.756Z,95556.09
2022-08-26T09:40:17.945Z,95547.88
2022-08-26T09:42:45.107Z,95558.41
2022-08-26T09:45:12.859Z,95549.22
2022-08-26T09:47:52.769Z,95543.00
2022-08-26T09:50:38.181Z,95540.44
2022-08-26T09:53:28.693Z,95548.28
2022-08-26T09:56:17.676Z,95541.84
2022-08-26T09:58:47.288Z,95538.38
2022-08-26T10:01:30.141Z,95531.19
2022-08-26T10:04:10.241Z,95529.44
2022-08-26T10:06:54.907Z,95524.09
2022-08-26T10:09:23.780Z,95510.78
2022-08-26T10:11:54.054Z,95516.09
2022-08-26T10:14:39.828Z,95500.56
2022-08-26T10:17:14.621Z,95497.56
2022-08-26T10:19:57.181Z,95497.25
2022-08-26T10:22:33.014Z,95490.53
2022-08-26T10:25:03.299Z,95491.91
2022-08-26T10:27:49.594Z,95482.09
2022-08-26T10:30:23.646Z,95490.75
2022-08-26T10:33:07.439Z,95482.31
2022-08-26T10:35:37.612Z,95489.66
2022-08-26T10:38:30.395Z,95474.56
2022-08-26T10:41:10.455Z,95477.09
2022-08-26T10:43:42.697Z,95484.78
2022-08-26T10:46:16.328Z,95478.63
2022-08-26T10:48:49.350Z,95475.94
2022-08-26T10:51:28.853Z,95474.91
2022-08-26T10:54:05.479Z,95464.88
2022-08-26T10:56:52.892Z,95463.88
2022-08-26T11:00:29.624Z,95455.81
2022-08-26T11:03:27.470Z,95450.09
2022-08-26T11:06:15.963Z,95456.31
2022-08-26T11:08:48.299Z,95452.91
2022-08-26T11:11:40.083Z,95444.09
2022-08-26T11:14:29.321Z,95438.81
2022-08-26T11:16:58.663Z,95435.66
2022-08-26T11:19:59.445Z,95435.50
2022-08-26T11:22:29.571Z,95435.88
2022-08-26T11:24:56.445Z,95441.09
2022-08-26T11:27:26.114Z,95434.38
2022-08-26T11:29:57.366Z,95451.00
2022-08-26T11:32:26.828Z,95439.97
2022-08-26T11:34:59.151Z,95435.41
2022-08-26T11:37:33.291Z,95442.50
2022-08-26T11:40:01.606Z,95429.56
2022-08-26T11:42:44.897Z,95437.53
2022-08-26T11:45:25.203Z,95422.16
2022-08-26T11:47:52.624Z,95423.16
2022-08-26T11:50:26.082Z,95414.13
2022-08-26T11:53:07.636Z,95411.06
2022-08-26T11:55:41.776Z,95421.78
2022-08-26T11:58:12.398Z,95420.66
2022-08-26T12:00:52.258Z,95430.56
2022-08-26T12:03:23.005Z,95428.00
2022-08-26T12:05:53.576Z,95431.19
2022-08-26T12:08:27.973Z,95434.00
2022-08-26T12:11:06.892Z,95433.22
2022-08-26T12:13:34.030Z,95438.09
2022-08-26T12:16:01.509Z,95433.59
2022-08-26T12:18:34.974Z,95438.91
2022-08-26T12:21:12.623Z,95429.03
2022-08-26T12:23:47.503Z,95437.59
2022-08-26T12:26:29.583Z,95438.81
2022-08-26T12:29:00.775Z,95441.34
2022-08-26T12:31:37.536Z,95429.88
2022-08-26T12:34:07.678Z,95435.66
2022-08-26T12:36:47.490Z,95429.16
2022-08-26T12:39:24.706Z,95422.88
2022-08-26T12:41:57.439Z,95424.88
2022-08-26T12:44:55.160Z,95428.72
2022-08-26T12:47:43.973Z,95439.38
2022-08-26T12:50:10.959Z,95438.78
2022-08-26T12:52:59.241Z,95440.13
2022-08-26T12:55:31.697Z,95433.84
2022-08-26T12:58:22.958Z,95436.94
2022-08-26T13:00:55.560Z,95424.03
2022-08-26T13:03:38.616Z,95422.75
2022-08-26T13:06:15.508Z,95426.78
2022-08-26T13:09:08.859Z,95422.56
2022-08-26T13:11:55.277Z,95426.88
2022-08-26T13:14:24.486Z,95422.88
2022-08-26T13:16:52.306Z,95423.72
2022-08-26T13:19:25.776Z,95425.84
2022-08-26T13:21:55.273Z,95415.06
2022-08-26T13:24:38.071Z,95415.00
2022-08-26T13:27:06.416Z,95408.72
2022-08-26T13:29:33.056Z,95410.28
2022-08-26T13:32:00.598Z,95404.63
2022-08-26T13:34:27.945Z,95406.94
2022-08-26T13:36:56.291Z,95399.66
2022-08-26T13:39:24.063Z,95401.59
2022-08-26T13:41:51.482Z,95397.59
2022-08-26T13:44:18.464Z,95398.31
2022-08-26T13:49:17.014Z,95395.66
2022-08-26T13:51:43.637Z,95395.81
2022-08-26T13:54:10.335Z,95390.88
2022-08-26T13:56:37.482Z,95388.94
2022-08-26T13:59:05.560Z,95384.66
2022-08-26T14:01:35.075Z,95392.31
2022-08-26T14:04:02.893Z,95389.63
2022-08-26T14:06:30.042Z,95393.34
2022-08-26T14:08:57.100Z,95392.66
2022-08-26T14:11:24.851Z,95390.50
2022-08-26T14:13:52.415Z,95385.91
2022-08-26T14:16:29.262Z,95385.94
2022-08-26T14:18:56.111Z,95382.59
2022-08-26T14:21:23.916Z,95387.22
2022-08-26T14:23:50.529Z,95377.59
2022-08-26T14:26:28.769Z,95375.25
2022-08-26T14:28:58.914Z,95360.84
2022-08-26T14:31:27.168Z,95363.13
2022-08-26T14:33:56.621Z,95362.09
2022-08-26T14:36:29.365Z,95363.13
2022-08-26T14:38:58.274Z,95362.81
2022-08-26T14:41:25.411Z,95360.53
2022-08-26T14:44:05.685Z,95366.19
2022-08-26T14:46:37.601Z,95374.03
2022-08-26T14:49:07.295Z,95384.41
2022-08-26T14:51:36.596Z,95398.31
2022-08-26T14:54:12.318Z,95403.00
2022-08-26T14:56:48.765Z,95401.03
2022-08-26T14:59:27.549Z,95396.88
2022-08-26T15:01:55.291Z,95398.84
2022-08-26T15:04:23.006Z,95394.34
2022-08-26T15:06:50.794Z,95399.47
2022-08-26T15:09:17.397Z,95393.81
2022-08-26T15:11:44.498Z,95392.16
2022-08-26T15:14:19.021Z,95390.78
2022-08-26T15:16:47.889Z,95391.97
2022-08-26T15:19:15.375Z,95391.28
2022-08-26T15:21:43.307Z,95397.00
2022-08-26T15:24:09.902Z,95393.28
2022-08-26T15:26:36.721Z,95398.78
2022-08-26T15:29:05.230Z,95396.78
2022-08-26T15:31:33.600Z,95398.84
2022-08-26T15:34:05.028Z,95392.31
2022-08-26T15:36:33.011Z,95390.81
2022-08-26T15:39:00.887Z,95393.34
2022-08-26T15:41:28.184Z,95388.13
2022-08-26T15:43:54.756Z,95384.47
2022-08-26T15:46:21.409Z,95393.53
2022-08-26T15:48:48.186Z,95386.81
2022-08-26T15:51:23.830Z,95391.00
2022-08-26T15:53:51.179Z,95388.50
2022-08-26T15:56:18.327Z,95395.03
2022-08-26T15:58:45.388Z,95396.53
2022-08-26T16:01:12.485Z,95409.38
2022-08-26T16:03:39.127Z,95409.06
2022-08-26T16:06:06.871Z,95401.84
2022-08-26T16:08:36.424Z,95404.00
2022-08-26T16:11:04.118Z,95410.69
2022-08-26T16:13:33.882Z,95410.66
2022-08-26T16:16:07.919Z,95415.72
2022-08-26T16:18:34.563Z,95409.69
2022-08-26T16:21:13.750Z,95416.06
2022-08-26T16:23:40.858Z,95418.88
2022-08-26T16:26:15.873Z,95411.41
2022-08-26T16:28:43.614Z,95414.75
2022-08-26T16:31:10.750Z,95424.00
2022-08-26T16:33:37.896Z,95425.41
2022-08-26T16:36:05.658Z,95438.13
2022-08-26T16:38:32.576Z,95437.41
2022-08-26T16:41:00.601Z,95452.66
2022-08-26T16:43:27.748Z,95445.50
2022-08-26T16:45:54.467Z,95450.78
2022-08-26T16:48:21.220Z,95461.13
2022-08-26T16:50:47.960Z,95465.97
2022-08-26T16:55:47.842Z,95463.38
2022-08-26T16:58:15.013Z,95467.38
2022-08-26T17:00:42.434Z,95460.94
2022-08-26T17:03:10.013Z,95474.84
2022-08-26T17:05:37.271Z,95474.63
2022-08-26T17:08:04.643Z,95477.47
2022-08-26T17:10:31.858Z,95483.00
2022-08-26T17:12:58.651Z,95466.00
2022-08-26T17:15:25.768Z,95474.03
2022-08-26T17:17:53.176Z,95472.28
2022-08-26T17:20:21.347Z,95470.09
2022-08-26T17:22:50.748Z,95471.44
2022-08-26T17:25:26.845Z,95473.91
2022-08-26T17:27:53.644Z,95475.63
2022-08-26T17:30:21.134Z,95482.56
2022-08-26T17:32:48.441Z,95492.59
2022-08-26T17:35:15.616Z,95489.03
2022-08-26T17:37:43.499Z,95481.78
2022-08-26T17:40:15.282Z,95488.34
2022-08-26T17:42:42.418Z,95492.16
2022-08-26T17:45:09.969Z,95487.97
2022-08-26T17:47:37.432Z,95489.72
2022-08-26T17:50:06.635Z,95488.72
2022-08-26T17:52:33.307Z,95495.63
2022-08-26T17:54:59.891Z,95502.06
2022-08-26T17:57:27.094Z,95506.81
2022-08-26T17:59:54.283Z,95511.78
2022-08-26T18:02:21.410Z,95514.63
2022-08-26T18:04:48.278Z,95519.09
2022-08-26T18:07:15.511Z,95524.09
2022-08-26T18:09:42.467Z,95525.34
2022-08-26T18:12:09.241Z,95533.56
2022-08-26T18:14:36.082Z,95536.19
2022-08-26T18:17:03.054Z,95535.72
2022-08-26T18:19:29.885Z,95535.59
2022-08-26T18:21:56.942Z,95540.28
2022-08-26T18:24:24.457Z,95539.13
2022-08-26T18:26:51.080Z,95532.41
2022-08-26T18:29:19.434Z,95535.78
2022-08-26T18:31:46.475Z,95538.50
2022-08-26T18:34:15.374Z,95545.81
2022-08-26T18:36:42.689Z,95551.34
2022-08-26T18:39:10.900Z,95556.38
2022-08-26T18:41:46.700Z,95548.88
2022-08-26T18:44:15.271Z,95548.03
2022-08-26T18:46:42.996Z,95549.66
2022-08-26T18:49:12.316Z,95556.69
2022-08-26T18:51:39.151Z,95562.06
2022-08-26T18:54:07.511Z,95554.28
2022-08-26T18:56:36.282Z,95550.31
2022-08-26T18:59:04.746Z,95557.00
2022-08-26T19:01:32.664Z,95549.69
2022-08-26T19:04:01.553Z,95560.78
2022-08-26T19:06:31.522Z,95555.66
2022-08-26T19:08:58.748Z,95554.84
2022-08-26T19:11:32.231Z,95555.59
2022-08-26T19:14:01.305Z,95564.00
2022-08-26T19:16:29.206Z,95572.53
2022-08-26T19:18:56.234Z,95566.41
2022-08-26T19:21:23.203Z,95564.38
2022-08-26T19:23:50.843Z,95577.56
2022-08-26T19:26:19.295Z,95581.56
2022-08-26T19:28:46.097Z,95579.25
2022-08-26T19:31:12.757Z,95574.56
2022-08-26T19:33:42.084Z,95580.81
2022-08-26T19:36:15.021Z,95586.22
2022-08-26T19:38:42.765Z,95583.94
2022-08-26T19:41:14.867Z,95590.94
2022-08-26T19:43:41.886Z,95586.72
2022-08-26T19:46:13.801Z,95579.91
2022-08-26T19:48:43.889Z,95578.38
2022-08-26T19:51:21.994Z,95579.06
2022-08-26T19:53:49.008Z,95572.34
2022-08-26T19:56:16.419Z,95580.72
2022-08-26T19:58:43.495Z,95572.75
2022-08-26T20:01:10.621Z,95572.75
2022-08-26T20:03:37.480Z,95590.53
2022-08-26T20:06:06.279Z,95582.81
2022-08-26T20:08:33.863Z,95581.56
2022-08-26T20:11:02.652Z,95589.72
2022-08-26T20:13:29.225Z,95598.66
2022-08-26T20:15:55.846Z,95595.56
2022-08-26T20:18:41.090Z,95582.72
2022-08-26T20:21:26.415Z,95574.81
2022-08-26T20:23:54.883Z,95573.16
2022-08-26T20:26:21.736Z,95570.94
2022-08-26T20:28:51.069Z,95570.94
2022-08-26T20:31:19.212Z,95575.97
2022-08-26T20:33:46.892Z,95574.28
2022-08-26T20:36:14.927Z,95585.06
2022-08-26T20:38:41.838Z,95587.56
2022-08-26T20:41:08.535Z,95574.41
2022-08-26T20:43:35.201Z,95584.50
2022-08-26T20:46:01.900Z,95585.63
2022-08-26T20:48:28.565Z,95580.44
2022-08-26T20:50:59.895Z,95572.16
2022-08-26T20:53:28.570Z,95586.63
2022-08-26T20:55:59.722Z,95578.47
2022-08-26T20:58:26.504Z,95588.28
2022-08-26T21:00:53.179Z,95598.06
2022-08-26T21:03:19.854Z,95599.88
2022-08-26T21:05:46.469Z,95598.28
2022-08-26T21:08:13.196Z,95605.34
2022-08-26T21:10:40.383Z,95599.13
2022-08-26T21:13:07.730Z,95600.94
2022-08-26T21:15:35.179Z,95599.81
2022-08-26T21:18:03.203Z,95607.16
2022-08-26T21:20:30.669Z,95599.91
2022-08-26T21:22:57.283Z,95597.38
2022-08-26T21:25:24.078Z,95596.88
2022-08-26T21:27:50.714Z,95589.88
2022-08-26T21:30:17.350Z,95592.25
2022-08-26T21:32:44.000Z,95588.16
2022-08-26T21:35:10.622Z,95590.09
2022-08-26T21:37:37.220Z,95588.41
2022-08-26T21:40:05.617Z,95599.50
2022-08-26T21:42:34.471Z,95597.09
2022-08-26T21:45:02.866Z,95596.69
2022-08-26T21:47:30.251Z,95590.09
2022-08-26T21:49:56.928Z,95605.16
2022-08-26T21:52:24.721Z,95600.94
2022-08-26T21:54:51.363Z,95602.97
2022-08-26T21:57:19.053Z,95610.69
2022-08-26T21:59:45.668Z,95609.25
2022-08-26T22:02:13.354Z,95609.91
2022-08-26T22:04:43.652Z,95609.09
2022-08-26T22:07:13.583Z,95609.34
2022-08-26T22:09:41.281Z,95611.44
2022-08-26T22:12:12.153Z,95603.28
2022-08-26T22:14:39.718Z,95614.03
2022-08-26T22:17:06.485Z,95622.16
2022-08-26T22:19:34.045Z,95619.34
2022-08-26T22:22:03.655Z,95624.38
2022-08-26T22:24:30.277Z,95626.28
2022-08-26T22:26:57.028Z,95627.19
2022-08-26T22:29:24.998Z,95631.28
2022-08-26T22:31:51.863Z,95629.84
2022-08-26T22:34:20.290Z,95631.16
2022-08-26T22:36:49.115Z,95636.16
2022-08-26T22:39:18.956Z,95645.88
2022-08-26T22:41:48.463Z,95652.69
2022-08-26T22:44:15.867Z,95650.84
2022-08-26T22:46:43.821Z,95661.69
2022-08-26T22:49:12.577Z,95662.06
2022-08-26T22:51:39.240Z,95655.97
2022-08-26T22:54:05.947Z,95663.06
2022-08-26T22:56:32.565Z,95661.88
2022-08-26T22:58:59.160Z,95669.22
2022-08-26T23:01:25.945Z,95666.47
2022-08-26T23:03:53.081Z,95664.47
2022-08-26T23:06:19.693Z,95661.97
2022-08-26T23:08:47.029Z,95661.00
2022-08-26T23:11:14.973Z,95667.19
2022-08-26T23:13:42.475Z,95656.66
2022-08-26T23:16:11.468Z,95668.00
2022-08-26T23:18:38.669Z,95664.63
2022-08-26T23:21:06.002Z,95657.09
2022-08-26T23:23:33.074Z,95658.41
2022-08-26T23:26:02.346Z,95656.63
2022-08-26T23:28:32.256Z,95655.13
2022-08-26T23:30:58.899Z,95657.94
2022-08-26T23:33:45.504Z,95660.75
2022-08-26T23:36:17.046Z,95652.34
2022-08-26T23:38:44.498Z,95649.78
2022-08-26T23:41:14.214Z,95651.75
2022-08-26T23:43:45.020Z,95647.56
2022-08-26T23:46:11.820Z,95637.34
2022-08-26T23:48:38.605Z,95638.72
2022-08-26T23:51:23.803Z,95640.53
2022-08-26T23:53:50.835Z,95632.34
2022-08-26T23:56:17.994Z,95625.56
2022-08-26T23:58:45.001Z,95627.69
